sensor_id;sensor_type;location;lat;lon;timestamp;P1;durP1;ratioP1;P2;durP2;ratioP2
31724;SDS011;18306;40.960;14.836;2023-07-20T05:03:49;7.88;;;4.10;;
31724;SDS011;18306;40.960;14.836;2023-07-20T05:06:18;10.23;;;4.93;;
31724;SDS011;18306;40.960;14.836;2023-07-20T05:08:45;8.02;;;4.28;;
31724;SDS011;18306;40.960;14.836;2023-07-20T05:11:12;12.65;;;5.10;;
31724;SDS011;18306;40.960;14.836;2023-07-20T05:13:40;14.52;;;5.40;;
31724;SDS011;18306;40.960;14.836;2023-07-20T05:16:07;13.65;;;6.70;;
31724;SDS011;18306;40.960;14.836;2023-07-20T05:18:34;15.13;;;5.18;;
31724;SDS011;18306;40.960;14.836;2023-07-20T05:21:01;13.13;;;5.47;;
31724;SDS011;18306;40.960;14.836;2023-07-20T05:23:28;12.68;;;6.03;;
31724;SDS011;18306;40.960;14.836;2023-07-20T05:25:59;10.50;;;4.85;;
31724;SDS011;18306;40.960;14.836;2023-07-20T05:28:28;7.90;;;4.60;;
31724;SDS011;18306;40.960;14.836;2023-07-20T05:30:55;14.40;;;4.03;;
31724;SDS011;18306;40.960;14.836;2023-07-20T05:33:23;10.15;;;3.85;;
31724;SDS011;18306;40.960;14.836;2023-07-20T05:35:50;19.58;;;6.00;;
31724;SDS011;18306;40.960;14.836;2023-07-20T05:38:17;12.50;;;4.18;;
31724;SDS011;18306;40.960;14.836;2023-07-20T05:40:46;18.25;;;4.72;;
31724;SDS011;18306;40.960;14.836;2023-07-20T05:43:13;11.70;;;4.28;;
31724;SDS011;18306;40.960;14.836;2023-07-20T05:45:43;10.25;;;3.55;;
31724;SDS011;18306;40.960;14.836;2023-07-20T05:48:11;11.02;;;5.25;;
31724;SDS011;18306;40.960;14.836;2023-07-20T05:50:43;9.18;;;4.93;;
31724;SDS011;18306;40.960;14.836;2023-07-20T05:53:10;6.50;;;4.07;;
31724;SDS011;18306;40.960;14.836;2023-07-20T05:55:37;10.80;;;4.80;;
31724;SDS011;18306;40.960;14.836;2023-07-20T05:58:05;13.52;;;5.03;;
31724;SDS011;18306;40.960;14.836;2023-07-20T06:00:32;17.98;;;5.15;;
31724;SDS011;18306;40.960;14.836;2023-07-20T06:02:59;11.82;;;5.15;;
31724;SDS011;18306;40.960;14.836;2023-07-20T06:05:26;13.73;;;4.22;;
31724;SDS011;18306;40.960;14.836;2023-07-20T06:07:53;16.92;;;5.45;;
31724;SDS011;18306;40.960;14.836;2023-07-20T06:10:21;16.00;;;4.63;;
31724;SDS011;18306;40.960;14.836;2023-07-20T06:12:48;9.73;;;4.20;;
31724;SDS011;18306;40.960;14.836;2023-07-20T06:15:31;18.80;;;5.18;;
31724;SDS011;18306;40.960;14.836;2023-07-20T06:18:00;7.72;;;3.72;;
31724;SDS011;18306;40.960;14.836;2023-07-20T06:20:28;9.20;;;4.65;;
31724;SDS011;18306;40.960;14.836;2023-07-20T06:22:55;8.27;;;3.47;;
31724;SDS011;18306;40.960;14.836;2023-07-20T06:25:22;9.60;;;5.38;;
31724;SDS011;18306;40.960;14.836;2023-07-20T06:27:49;12.35;;;4.60;;
31724;SDS011;18306;40.960;14.836;2023-07-20T06:30:20;18.20;;;5.75;;
31724;SDS011;18306;40.960;14.836;2023-07-20T06:32:47;18.23;;;6.20;;
31724;SDS011;18306;40.960;14.836;2023-07-20T06:35:15;23.83;;;6.70;;
31724;SDS011;18306;40.960;14.836;2023-07-20T06:37:43;13.43;;;4.28;;
31724;SDS011;18306;40.960;14.836;2023-07-20T06:40:11;16.98;;;4.82;;
31724;SDS011;18306;40.960;14.836;2023-07-20T06:42:41;15.55;;;5.78;;
31724;SDS011;18306;40.960;14.836;2023-07-20T06:45:08;19.77;;;5.60;;
31724;SDS011;18306;40.960;14.836;2023-07-20T06:47:39;9.68;;;4.88;;
31724;SDS011;18306;40.960;14.836;2023-07-20T06:50:06;14.55;;;5.80;;
31724;SDS011;18306;40.960;14.836;2023-07-20T06:52:34;10.88;;;5.32;;
31724;SDS011;18306;40.960;14.836;2023-07-20T06:55:01;19.58;;;6.70;;
31724;SDS011;18306;40.960;14.836;2023-07-20T06:57:28;12.02;;;4.85;;
31724;SDS011;18306;40.960;14.836;2023-07-20T06:59:56;15.07;;;5.00;;
31724;SDS011;18306;40.960;14.836;2023-07-20T07:02:23;18.08;;;5.13;;
31724;SDS011;18306;40.960;14.836;2023-07-20T07:04:50;19.13;;;5.07;;
31724;SDS011;18306;40.960;14.836;2023-07-20T07:07:17;8.40;;;4.35;;
31724;SDS011;18306;40.960;14.836;2023-07-20T07:09:44;13.80;;;4.63;;
31724;SDS011;18306;40.960;14.836;2023-07-20T07:12:11;13.52;;;4.85;;
31724;SDS011;18306;40.960;14.836;2023-07-20T07:14:38;18.58;;;4.45;;
31724;SDS011;18306;40.960;14.836;2023-07-20T07:17:05;24.88;;;6.38;;
31724;SDS011;18306;40.960;14.836;2023-07-20T07:19:33;11.73;;;5.28;;
31724;SDS011;18306;40.960;14.836;2023-07-20T07:22:00;10.15;;;5.07;;
31724;SDS011;18306;40.960;14.836;2023-07-20T07:24:27;10.95;;;4.45;;
31724;SDS011;18306;40.960;14.836;2023-07-20T07:27:00;16.02;;;5.28;;
31724;SDS011;18306;40.960;14.836;2023-07-20T07:29:27;15.27;;;5.85;;
31724;SDS011;18306;40.960;14.836;2023-07-20T07:31:54;22.92;;;5.22;;
31724;SDS011;18306;40.960;14.836;2023-07-20T07:34:21;22.67;;;6.45;;
31724;SDS011;18306;40.960;14.836;2023-07-20T07:36:49;15.15;;;6.82;;
31724;SDS011;18306;40.960;14.836;2023-07-20T07:39:16;23.20;;;8.25;;
31724;SDS011;18306;40.960;14.836;2023-07-20T07:41:44;34.67;;;12.90;;
31724;SDS011;18306;40.960;14.836;2023-07-20T07:44:11;30.42;;;11.80;;
31724;SDS011;18306;40.960;14.836;2023-07-20T07:46:38;22.85;;;8.88;;
31724;SDS011;18306;40.960;14.836;2023-07-20T07:49:05;24.65;;;10.60;;
31724;SDS011;18306;40.960;14.836;2023-07-20T07:51:32;20.55;;;9.25;;
31724;SDS011;18306;40.960;14.836;2023-07-20T07:54:00;17.67;;;8.32;;
31724;SDS011;18306;40.960;14.836;2023-07-20T07:56:27;17.77;;;7.50;;
31724;SDS011;18306;40.960;14.836;2023-07-20T07:58:54;22.23;;;8.13;;
31724;SDS011;18306;40.960;14.836;2023-07-20T08:01:21;22.20;;;8.30;;
31724;SDS011;18306;40.960;14.836;2023-07-20T08:03:48;31.33;;;7.90;;
31724;SDS011;18306;40.960;14.836;2023-07-20T08:06:16;20.35;;;7.50;;
31724;SDS011;18306;40.960;14.836;2023-07-20T08:08:43;17.27;;;6.85;;
31724;SDS011;18306;40.960;14.836;2023-07-20T08:11:10;23.40;;;7.40;;
31724;SDS011;18306;40.960;14.836;2023-07-20T08:13:37;16.70;;;7.03;;
31724;SDS011;18306;40.960;14.836;2023-07-20T08:16:05;12.60;;;7.15;;
31724;SDS011;18306;40.960;14.836;2023-07-20T08:18:32;15.77;;;6.60;;
31724;SDS011;18306;40.960;14.836;2023-07-20T08:20:59;17.17;;;6.10;;
31724;SDS011;18306;40.960;14.836;2023-07-20T08:23:26;17.52;;;5.85;;
31724;SDS011;18306;40.960;14.836;2023-07-20T08:25:54;10.43;;;6.07;;
31724;SDS011;18306;40.960;14.836;2023-07-20T08:28:23;15.25;;;6.28;;
31724;SDS011;18306;40.960;14.836;2023-07-20T08:30:56;16.58;;;5.78;;
31724;SDS011;18306;40.960;14.836;2023-07-20T08:33:23;10.02;;;5.28;;
31724;SDS011;18306;40.960;14.836;2023-07-20T08:35:52;11.63;;;5.65;;
31724;SDS011;18306;40.960;14.836;2023-07-20T08:38:19;14.00;;;5.63;;
31724;SDS011;18306;40.960;14.836;2023-07-20T08:40:46;14.27;;;6.18;;
31724;SDS011;18306;40.960;14.836;2023-07-20T08:43:14;14.30;;;5.43;;
31724;SDS011;18306;40.960;14.836;2023-07-20T08:45:44;13.73;;;5.40;;
31724;SDS011;18306;40.960;14.836;2023-07-20T08:48:13;21.88;;;5.68;;
31724;SDS011;18306;40.960;14.836;2023-07-20T08:50:42;16.58;;;5.32;;
31724;SDS011;18306;40.960;14.836;2023-07-20T08:53:10;12.05;;;4.72;;
31724;SDS011;18306;40.960;14.836;2023-07-20T08:55:39;12.25;;;5.65;;
31724;SDS011;18306;40.960;14.836;2023-07-20T08:58:09;14.35;;;6.75;;
31724;SDS011;18306;40.960;14.836;2023-07-20T09:00:39;12.38;;;5.15;;
31724;SDS011;18306;40.960;14.836;2023-07-20T09:03:07;20.05;;;5.55;;
31724;SDS011;18306;40.960;14.836;2023-07-20T09:05:34;11.20;;;4.97;;
31724;SDS011;18306;40.960;14.836;2023-07-20T09:08:01;12.02;;;5.88;;
31724;SDS011;18306;40.960;14.836;2023-07-20T09:10:32;21.35;;;4.97;;
31724;SDS011;18306;40.960;14.836;2023-07-20T09:12:58;10.77;;;4.20;;
31724;SDS011;18306;40.960;14.836;2023-07-20T09:15:26;7.20;;;4.05;;
31724;SDS011;18306;40.960;14.836;2023-07-20T09:17:55;15.43;;;5.50;;
31724;SDS011;18306;40.960;14.836;2023-07-20T09:20:22;11.23;;;4.75;;
31724;SDS011;18306;40.960;14.836;2023-07-20T09:22:51;12.57;;;4.57;;
31724;SDS011;18306;40.960;14.836;2023-07-20T09:25:21;12.75;;;4.43;;
31724;SDS011;18306;40.960;14.836;2023-07-20T09:27:49;15.55;;;4.82;;
31724;SDS011;18306;40.960;14.836;2023-07-20T09:30:17;9.27;;;4.30;;
31724;SDS011;18306;40.960;14.836;2023-07-20T09:32:46;15.38;;;4.55;;
31724;SDS011;18306;40.960;14.836;2023-07-20T09:35:15;15.10;;;5.35;;
31724;SDS011;18306;40.960;14.836;2023-07-20T09:40:22;15.00;;;6.22;;
31724;SDS011;18306;40.960;14.836;2023-07-20T09:42:51;9.07;;;4.93;;
31724;SDS011;18306;40.960;14.836;2023-07-20T09:45:29;15.20;;;5.53;;
31724;SDS011;18306;40.960;14.836;2023-07-20T09:48:08;12.50;;;4.68;;
31724;SDS011;18306;40.960;14.836;2023-07-20T09:50:40;13.45;;;4.32;;
31724;SDS011;18306;40.960;14.836;2023-07-20T09:53:16;8.90;;;5.55;;
31724;SDS011;18306;40.960;14.836;2023-07-20T09:56:05;14.75;;;5.07;;
31724;SDS011;18306;40.960;14.836;2023-07-20T09:58:32;15.18;;;5.38;;
31724;SDS011;18306;40.960;14.836;2023-07-20T10:01:01;20.88;;;5.40;;
31724;SDS011;18306;40.960;14.836;2023-07-20T10:03:32;11.38;;;5.05;;
31724;SDS011;18306;40.960;14.836;2023-07-20T10:06:08;8.50;;;4.88;;
31724;SDS011;18306;40.960;14.836;2023-07-20T10:08:43;23.42;;;6.60;;
31724;SDS011;18306;40.960;14.836;2023-07-20T10:11:18;12.93;;;4.18;;
31724;SDS011;18306;40.960;14.836;2023-07-20T10:13:49;14.20;;;4.32;;
31724;SDS011;18306;40.960;14.836;2023-07-20T10:16:22;21.63;;;5.65;;
31724;SDS011;18306;40.960;14.836;2023-07-20T10:19:10;15.57;;;5.60;;
31724;SDS011;18306;40.960;14.836;2023-07-20T10:21:42;12.95;;;5.35;;
31724;SDS011;18306;40.960;14.836;2023-07-20T10:24:18;16.58;;;5.38;;
31724;SDS011;18306;40.960;14.836;2023-07-20T10:26:45;11.13;;;4.63;;
31724;SDS011;18306;40.960;14.836;2023-07-20T10:29:12;17.83;;;5.50;;
31724;SDS011;18306;40.960;14.836;2023-07-20T10:31:41;15.55;;;5.97;;
31724;SDS011;18306;40.960;14.836;2023-07-20T10:34:09;20.23;;;6.30;;
31724;SDS011;18306;40.960;14.836;2023-07-20T10:36:43;19.83;;;4.68;;
31724;SDS011;18306;40.960;14.836;2023-07-20T10:39:24;19.08;;;5.93;;
31724;SDS011;18306;40.960;14.836;2023-07-20T10:42:00;13.63;;;5.30;;
31724;SDS011;18306;40.960;14.836;2023-07-20T10:44:29;23.10;;;6.30;;
31724;SDS011;18306;40.960;14.836;2023-07-20T10:47:01;23.73;;;5.88;;
31724;SDS011;18306;40.960;14.836;2023-07-20T10:49:34;23.60;;;5.18;;
31724;SDS011;18306;40.960;14.836;2023-07-20T10:52:22;20.50;;;6.47;;
31724;SDS011;18306;40.960;14.836;2023-07-20T10:54:49;26.20;;;6.88;;
31724;SDS011;18306;40.960;14.836;2023-07-20T10:57:31;23.15;;;7.22;;
31724;SDS011;18306;40.960;14.836;2023-07-20T11:00:19;19.05;;;6.35;;
31724;SDS011;18306;40.960;14.836;2023-07-20T11:02:49;16.20;;;6.40;;
31724;SDS011;18306;40.960;14.836;2023-07-20T11:05:35;16.98;;;7.03;;
31724;SDS011;18306;40.960;14.836;2023-07-20T11:08:10;14.02;;;6.15;;
31724;SDS011;18306;40.960;14.836;2023-07-20T11:10:38;18.10;;;6.20;;
31724;SDS011;18306;40.960;14.836;2023-07-20T11:13:19;16.83;;;6.15;;
31724;SDS011;18306;40.960;14.836;2023-07-20T11:18:25;23.00;;;6.85;;
31724;SDS011;18306;40.960;14.836;2023-07-20T11:20:53;19.05;;;6.43;;
31724;SDS011;18306;40.960;14.836;2023-07-20T11:23:21;13.30;;;6.78;;
31724;SDS011;18306;40.960;14.836;2023-07-20T11:25:48;27.65;;;7.22;;
31724;SDS011;18306;40.960;14.836;2023-07-20T11:28:20;24.42;;;7.05;;
31724;SDS011;18306;40.960;14.836;2023-07-20T11:30:51;19.98;;;6.68;;
31724;SDS011;18306;40.960;14.836;2023-07-20T11:33:22;28.65;;;6.68;;
31724;SDS011;18306;40.960;14.836;2023-07-20T11:35:49;29.80;;;7.10;;
31724;SDS011;18306;40.960;14.836;2023-07-20T11:38:17;27.80;;;7.82;;
31724;SDS011;18306;40.960;14.836;2023-07-20T11:40:44;21.10;;;6.78;;
31724;SDS011;18306;40.960;14.836;2023-07-20T11:43:15;20.67;;;7.03;;
31724;SDS011;18306;40.960;14.836;2023-07-20T11:45:45;12.32;;;6.47;;
31724;SDS011;18306;40.960;14.836;2023-07-20T11:48:15;18.73;;;8.00;;
31724;SDS011;18306;40.960;14.836;2023-07-20T11:50:42;20.92;;;7.32;;
31724;SDS011;18306;40.960;14.836;2023-07-20T11:53:10;16.20;;;7.30;;
31724;SDS011;18306;40.960;14.836;2023-07-20T11:55:38;17.63;;;7.53;;
31724;SDS011;18306;40.960;14.836;2023-07-20T11:58:06;24.33;;;7.13;;
31724;SDS011;18306;40.960;14.836;2023-07-20T12:00:38;25.73;;;8.38;;
31724;SDS011;18306;40.960;14.836;2023-07-20T12:03:06;29.15;;;7.55;;
31724;SDS011;18306;40.960;14.836;2023-07-20T12:05:37;15.07;;;6.05;;
31724;SDS011;18306;40.960;14.836;2023-07-20T12:08:05;20.80;;;7.35;;
31724;SDS011;18306;40.960;14.836;2023-07-20T12:10:32;19.42;;;7.15;;
31724;SDS011;18306;40.960;14.836;2023-07-20T12:13:02;16.48;;;6.93;;
31724;SDS011;18306;40.960;14.836;2023-07-20T12:15:30;19.17;;;6.82;;
31724;SDS011;18306;40.960;14.836;2023-07-20T12:18:00;18.15;;;6.15;;
31724;SDS011;18306;40.960;14.836;2023-07-20T12:20:29;23.45;;;7.22;;
31724;SDS011;18306;40.960;14.836;2023-07-20T12:23:11;21.35;;;7.25;;
31724;SDS011;18306;40.960;14.836;2023-07-20T12:25:41;18.90;;;6.35;;
31724;SDS011;18306;40.960;14.836;2023-07-20T12:28:12;18.42;;;6.28;;
31724;SDS011;18306;40.960;14.836;2023-07-20T12:30:41;19.40;;;6.10;;
31724;SDS011;18306;40.960;14.836;2023-07-20T12:33:10;20.40;;;6.47;;
31724;SDS011;18306;40.960;14.836;2023-07-20T12:35:43;11.77;;;6.47;;
31724;SDS011;18306;40.960;14.836;2023-07-20T12:38:11;20.40;;;7.40;;
31724;SDS011;18306;40.960;14.836;2023-07-20T12:40:38;15.85;;;6.13;;
31724;SDS011;18306;40.960;14.836;2023-07-20T12:43:06;17.35;;;5.60;;
31724;SDS011;18306;40.960;14.836;2023-07-20T12:45:34;17.65;;;6.82;;
31724;SDS011;18306;40.960;14.836;2023-07-20T12:48:01;17.25;;;6.05;;
31724;SDS011;18306;40.960;14.836;2023-07-20T12:50:29;13.57;;;6.47;;
31724;SDS011;18306;40.960;14.836;2023-07-20T12:52:56;23.85;;;7.55;;
31724;SDS011;18306;40.960;14.836;2023-07-20T12:55:23;21.05;;;6.85;;
31724;SDS011;18306;40.960;14.836;2023-07-20T12:57:50;13.68;;;5.82;;
31724;SDS011;18306;40.960;14.836;2023-07-20T13:00:18;19.45;;;6.45;;
31724;SDS011;18306;40.960;14.836;2023-07-20T13:02:46;22.30;;;6.30;;
31724;SDS011;18306;40.960;14.836;2023-07-20T13:05:13;14.77;;;5.78;;
31724;SDS011;18306;40.960;14.836;2023-07-20T13:07:43;18.45;;;6.80;;
31724;SDS011;18306;40.960;14.836;2023-07-20T13:10:10;20.45;;;6.05;;
31724;SDS011;18306;40.960;14.836;2023-07-20T13:12:39;20.70;;;5.75;;
31724;SDS011;18306;40.960;14.836;2023-07-20T13:15:07;13.55;;;5.90;;
31724;SDS011;18306;40.960;14.836;2023-07-20T13:17:35;13.48;;;5.97;;
31724;SDS011;18306;40.960;14.836;2023-07-20T13:20:05;14.68;;;6.00;;
31724;SDS011;18306;40.960;14.836;2023-07-20T13:22:37;17.85;;;6.15;;
31724;SDS011;18306;40.960;14.836;2023-07-20T13:25:05;13.68;;;6.38;;
31724;SDS011;18306;40.960;14.836;2023-07-20T13:27:33;18.02;;;6.18;;
31724;SDS011;18306;40.960;14.836;2023-07-20T13:30:03;10.52;;;5.72;;
31724;SDS011;18306;40.960;14.836;2023-07-20T13:32:34;13.50;;;6.22;;
31724;SDS011;18306;40.960;14.836;2023-07-20T13:35:01;30.60;;;6.70;;
31724;SDS011;18306;40.960;14.836;2023-07-20T13:37:28;15.98;;;6.63;;
31724;SDS011;18306;40.960;14.836;2023-07-20T13:39:56;12.52;;;5.55;;
31724;SDS011;18306;40.960;14.836;2023-07-20T13:42:32;20.70;;;6.75;;
31724;SDS011;18306;40.960;14.836;2023-07-20T13:45:06;15.90;;;6.50;;
31724;SDS011;18306;40.960;14.836;2023-07-20T13:47:41;11.57;;;5.65;;
31724;SDS011;18306;40.960;14.836;2023-07-20T13:50:13;17.90;;;6.85;;
31724;SDS011;18306;40.960;14.836;2023-07-20T13:52:43;21.92;;;6.78;;
31724;SDS011;18306;40.960;14.836;2023-07-20T13:55:15;17.15;;;6.78;;
31724;SDS011;18306;40.960;14.836;2023-07-20T13:57:45;10.35;;;6.38;;
31724;SDS011;18306;40.960;14.836;2023-07-20T14:00:17;13.00;;;5.90;;
31724;SDS011;18306;40.960;14.836;2023-07-20T14:02:47;15.77;;;6.50;;
31724;SDS011;18306;40.960;14.836;2023-07-20T14:05:19;8.73;;;5.25;;
31724;SDS011;18306;40.960;14.836;2023-07-20T14:07:48;17.55;;;6.13;;
31724;SDS011;18306;40.960;14.836;2023-07-20T14:10:21;13.73;;;6.05;;
31724;SDS011;18306;40.960;14.836;2023-07-20T14:12:50;20.45;;;6.50;;
31724;SDS011;18306;40.960;14.836;2023-07-20T14:15:17;13.63;;;6.57;;
31724;SDS011;18306;40.960;14.836;2023-07-20T14:17:46;14.65;;;6.30;;
31724;SDS011;18306;40.960;14.836;2023-07-20T14:20:15;13.40;;;5.63;;
31724;SDS011;18306;40.960;14.836;2023-07-20T14:22:43;13.45;;;5.82;;
31724;SDS011;18306;40.960;14.836;2023-07-20T14:25:11;12.55;;;5.32;;
31724;SDS011;18306;40.960;14.836;2023-07-20T14:27:38;12.55;;;5.97;;
31724;SDS011;18306;40.960;14.836;2023-07-20T14:30:06;13.63;;;5.75;;
31724;SDS011;18306;40.960;14.836;2023-07-20T14:32:40;15.80;;;6.10;;
31724;SDS011;18306;40.960;14.836;2023-07-20T14:35:08;11.23;;;5.32;;
31724;SDS011;18306;40.960;14.836;2023-07-20T14:37:36;12.68;;;5.43;;
31724;SDS011;18306;40.960;14.836;2023-07-20T14:40:04;15.63;;;5.40;;
31724;SDS011;18306;40.960;14.836;2023-07-20T14:42:32;19.75;;;5.40;;
31724;SDS011;18306;40.960;14.836;2023-07-20T14:44:59;10.30;;;5.63;;
31724;SDS011;18306;40.960;14.836;2023-07-20T14:47:27;12.25;;;5.32;;
31724;SDS011;18306;40.960;14.836;2023-07-20T14:50:01;14.30;;;4.90;;
31724;SDS011;18306;40.960;14.836;2023-07-20T14:52:30;18.85;;;6.15;;
31724;SDS011;18306;40.960;14.836;2023-07-20T14:54:57;14.50;;;5.20;;
31724;SDS011;18306;40.960;14.836;2023-07-20T14:57:24;13.80;;;6.15;;
31724;SDS011;18306;40.960;14.836;2023-07-20T14:59:54;13.77;;;4.93;;
31724;SDS011;18306;40.960;14.836;2023-07-20T15:02:22;9.73;;;4.75;;
31724;SDS011;18306;40.960;14.836;2023-07-20T15:04:50;15.63;;;5.43;;
31724;SDS011;18306;40.960;14.836;2023-07-20T15:07:18;12.25;;;4.70;;
31724;SDS011;18306;40.960;14.836;2023-07-20T15:09:46;13.70;;;5.03;;
31724;SDS011;18306;40.960;14.836;2023-07-20T15:12:13;25.05;;;6.10;;
31724;SDS011;18306;40.960;14.836;2023-07-20T15:14:43;13.98;;;5.05;;
31724;SDS011;18306;40.960;14.836;2023-07-20T15:17:17;15.50;;;5.47;;
31724;SDS011;18306;40.960;14.836;2023-07-20T15:19:46;10.02;;;4.47;;
31724;SDS011;18306;40.960;14.836;2023-07-20T15:22:17;10.98;;;5.32;;
31724;SDS011;18306;40.960;14.836;2023-07-20T15:24:44;14.52;;;5.50;;
31724;SDS011;18306;40.960;14.836;2023-07-20T15:27:11;17.85;;;5.78;;
31724;SDS011;18306;40.960;14.836;2023-07-20T15:29:41;12.57;;;5.07;;
31724;SDS011;18306;40.960;14.836;2023-07-20T15:32:08;14.63;;;5.63;;
31724;SDS011;18306;40.960;14.836;2023-07-20T15:34:36;10.38;;;4.55;;
31724;SDS011;18306;40.960;14.836;2023-07-20T15:37:03;9.98;;;4.25;;
31724;SDS011;18306;40.960;14.836;2023-07-20T15:39:31;16.50;;;5.72;;
31724;SDS011;18306;40.960;14.836;2023-07-20T15:42:02;10.93;;;4.72;;
31724;SDS011;18306;40.960;14.836;2023-07-20T15:44:30;11.20;;;5.30;;
31724;SDS011;18306;40.960;14.836;2023-07-20T15:46:57;10.70;;;5.05;;
31724;SDS011;18306;40.960;14.836;2023-07-20T15:49:25;15.82;;;5.22;;
31724;SDS011;18306;40.960;14.836;2023-07-20T15:51:53;18.73;;;6.22;;
31724;SDS011;18306;40.960;14.836;2023-07-20T15:54:21;8.50;;;4.32;;
31724;SDS011;18306;40.960;14.836;2023-07-20T15:56:48;8.80;;;4.20;;
31724;SDS011;18306;40.960;14.836;2023-07-20T15:59:16;15.30;;;5.32;;
31724;SDS011;18306;40.960;14.836;2023-07-20T16:01:43;13.43;;;4.72;;
31724;SDS011;18306;40.960;14.836;2023-07-20T16:04:11;18.10;;;4.82;;
31724;SDS011;18306;40.960;14.836;2023-07-20T16:06:43;17.40;;;6.50;;
31724;SDS011;18306;40.960;14.836;2023-07-20T16:09:10;17.73;;;5.88;;
31724;SDS011;18306;40.960;14.836;2023-07-20T16:11:37;15.20;;;5.80;;
31724;SDS011;18306;40.960;14.836;2023-07-20T16:14:05;11.68;;;4.90;;
31724;SDS011;18306;40.960;14.836;2023-07-20T16:16:34;10.93;;;5.28;;
31724;SDS011;18306;40.960;14.836;2023-07-20T16:19:02;9.02;;;4.15;;
31724;SDS011;18306;40.960;14.836;2023-07-20T16:21:29;11.10;;;5.20;;
31724;SDS011;18306;40.960;14.836;2023-07-20T16:24:00;7.75;;;5.05;;
31724;SDS011;18306;40.960;14.836;2023-07-20T16:26:27;10.70;;;4.95;;
31724;SDS011;18306;40.960;14.836;2023-07-20T16:28:55;7.72;;;4.88;;
31724;SDS011;18306;40.960;14.836;2023-07-20T16:31:23;10.57;;;4.78;;
31724;SDS011;18306;40.960;14.836;2023-07-20T16:33:51;7.80;;;4.63;;
31724;SDS011;18306;40.960;14.836;2023-07-20T16:36:18;13.40;;;5.07;;
31724;SDS011;18306;40.960;14.836;2023-07-20T16:38:46;14.20;;;5.40;;
31724;SDS011;18306;40.960;14.836;2023-07-20T16:41:16;10.63;;;5.13;;
31724;SDS011;18306;40.960;14.836;2023-07-20T16:43:44;17.75;;;5.35;;
31724;SDS011;18306;40.960;14.836;2023-07-20T16:46:11;17.25;;;5.32;;
31724;SDS011;18306;40.960;14.836;2023-07-20T16:48:41;8.57;;;5.18;;
31724;SDS011;18306;40.960;14.836;2023-07-20T16:51:18;13.75;;;5.05;;
31724;SDS011;18306;40.960;14.836;2023-07-20T16:53:45;12.05;;;5.25;;
31724;SDS011;18306;40.960;14.836;2023-07-20T16:56:12;21.13;;;5.18;;
31724;SDS011;18306;40.960;14.836;2023-07-20T16:58:39;11.68;;;4.05;;
31724;SDS011;18306;40.960;14.836;2023-07-20T17:01:06;10.52;;;4.68;;
31724;SDS011;18306;40.960;14.836;2023-07-20T17:03:34;17.35;;;5.25;;
31724;SDS011;18306;40.960;14.836;2023-07-20T17:06:03;9.05;;;4.15;;
31724;SDS011;18306;40.960;14.836;2023-07-20T17:08:32;12.65;;;4.22;;
31724;SDS011;18306;40.960;14.836;2023-07-20T17:11:02;9.75;;;5.53;;
31724;SDS011;18306;40.960;14.836;2023-07-20T17:13:30;12.07;;;5.20;;
31724;SDS011;18306;40.960;14.836;2023-07-20T17:15:59;11.85;;;4.55;;
31724;SDS011;18306;40.960;14.836;2023-07-20T17:18:26;12.10;;;5.05;;
31724;SDS011;18306;40.960;14.836;2023-07-20T17:20:53;8.50;;;5.05;;
31724;SDS011;18306;40.960;14.836;2023-07-20T17:23:20;12.18;;;4.55;;
31724;SDS011;18306;40.960;14.836;2023-07-20T17:25:49;12.55;;;5.28;;
31724;SDS011;18306;40.960;14.836;2023-07-20T17:28:15;8.80;;;4.60;;
31724;SDS011;18306;40.960;14.836;2023-07-20T17:30:43;16.45;;;5.10;;
31724;SDS011;18306;40.960;14.836;2023-07-20T17:33:10;14.50;;;4.70;;
31724;SDS011;18306;40.960;14.836;2023-07-20T17:35:37;8.32;;;4.50;;
31724;SDS011;18306;40.960;14.836;2023-07-20T17:38:04;8.52;;;4.80;;
31724;SDS011;18306;40.960;14.836;2023-07-20T17:40:31;9.45;;;4.57;;
31724;SDS011;18306;40.960;14.836;2023-07-20T17:42:59;9.80;;;4.15;;
31724;SDS011;18306;40.960;14.836;2023-07-20T17:45:26;10.48;;;5.03;;
31724;SDS011;18306;40.960;14.836;2023-07-20T17:47:53;7.55;;;4.30;;
31724;SDS011;18306;40.960;14.836;2023-07-20T17:50:20;10.80;;;4.55;;
31724;SDS011;18306;40.960;14.836;2023-07-20T17:52:48;17.48;;;4.15;;
31724;SDS011;18306;40.960;14.836;2023-07-20T17:55:15;10.20;;;4.55;;
31724;SDS011;18306;40.960;14.836;2023-07-20T17:57:42;12.32;;;5.35;;
31724;SDS011;18306;40.960;14.836;2023-07-20T18:00:09;10.18;;;4.15;;
31724;SDS011;18306;40.960;14.836;2023-07-20T18:02:37;15.88;;;4.43;;
31724;SDS011;18306;40.960;14.836;2023-07-20T18:05:05;10.95;;;4.80;;
31724;SDS011;18306;40.960;14.836;2023-07-20T18:07:32;10.43;;;4.43;;
31724;SDS011;18306;40.960;14.836;2023-07-20T18:10:00;9.35;;;4.03;;
31724;SDS011;18306;40.960;14.836;2023-07-20T18:12:30;9.77;;;4.82;;
31724;SDS011;18306;40.960;14.836;2023-07-20T18:14:57;9.80;;;5.07;;
31724;SDS011;18306;40.960;14.836;2023-07-20T18:17:25;8.80;;;5.32;;
31724;SDS011;18306;40.960;14.836;2023-07-20T18:19:55;12.75;;;4.88;;
31724;SDS011;18306;40.960;14.836;2023-07-20T18:22:22;8.57;;;4.10;;
31724;SDS011;18306;40.960;14.836;2023-07-20T18:24:49;16.85;;;4.88;;
31724;SDS011;18306;40.960;14.836;2023-07-20T18:27:16;12.20;;;5.38;;
31724;SDS011;18306;40.960;14.836;2023-07-20T18:29:44;11.27;;;4.72;;
31724;SDS011;18306;40.960;14.836;2023-07-20T18:32:11;10.10;;;4.75;;
31724;SDS011;18306;40.960;14.836;2023-07-20T18:34:38;11.68;;;4.35;;
31724;SDS011;18306;40.960;14.836;2023-07-20T18:37:05;14.50;;;5.30;;
31724;SDS011;18306;40.960;14.836;2023-07-20T18:39:34;11.55;;;4.00;;
31724;SDS011;18306;40.960;14.836;2023-07-20T18:42:01;9.18;;;5.13;;
31724;SDS011;18306;40.960;14.836;2023-07-20T18:44:30;10.95;;;4.13;;
31724;SDS011;18306;40.960;14.836;2023-07-20T18:46:59;13.02;;;4.68;;
31724;SDS011;18306;40.960;14.836;2023-07-20T18:49:27;14.52;;;5.10;;
31724;SDS011;18306;40.960;14.836;2023-07-20T18:51:55;12.60;;;4.43;;
31724;SDS011;18306;40.960;14.836;2023-07-20T18:54:22;12.32;;;4.80;;
31724;SDS011;18306;40.960;14.836;2023-07-20T18:56:50;11.88;;;4.70;;
31724;SDS011;18306;40.960;14.836;2023-07-20T18:59:18;13.48;;;6.18;;
31724;SDS011;18306;40.960;14.836;2023-07-20T19:01:45;10.43;;;5.00;;
31724;SDS011;18306;40.960;14.836;2023-07-20T19:04:20;14.00;;;4.35;;
31724;SDS011;18306;40.960;14.836;2023-07-20T19:06:48;13.80;;;5.10;;
31724;SDS011;18306;40.960;14.836;2023-07-20T19:09:15;11.90;;;5.25;;
31724;SDS011;18306;40.960;14.836;2023-07-20T19:11:42;10.43;;;4.93;;
31724;SDS011;18306;40.960;14.836;2023-07-20T19:14:09;14.88;;;6.82;;
31724;SDS011;18306;40.960;14.836;2023-07-20T19:16:39;9.50;;;4.57;;
31724;SDS011;18306;40.960;14.836;2023-07-20T19:19:20;6.68;;;5.20;;
31724;SDS011;18306;40.960;14.836;2023-07-20T19:21:57;15.73;;;5.63;;
31724;SDS011;18306;40.960;14.836;2023-07-20T19:24:55;12.63;;;6.32;;
31724;SDS011;18306;40.960;14.836;2023-07-20T19:27:23;14.10;;;5.72;;
31724;SDS011;18306;40.960;14.836;2023-07-20T19:29:50;10.93;;;5.18;;
31724;SDS011;18306;40.960;14.836;2023-07-20T19:32:17;12.98;;;5.70;;
31724;SDS011;18306;40.960;14.836;2023-07-20T19:34:44;9.68;;;5.65;;
31724;SDS011;18306;40.960;14.836;2023-07-20T19:37:12;8.18;;;4.78;;
31724;SDS011;18306;40.960;14.836;2023-07-20T19:39:47;8.40;;;4.95;;
31724;SDS011;18306;40.960;14.836;2023-07-20T19:42:14;13.52;;;5.20;;